sensor_id;sensor_type;location;lat;lon;timestamp;P1;durP1;ratioP1;P2;durP2;ratioP2
45887;SDS011;31595;51.418;7.572;2024-03-06T00:01:52;33.92;;;23.67;;
45887;SDS011;31595;51.418;7.572;2024-03-06T00:04:18;82.05;;;28.52;;
45887;SDS011;31595;51.418;7.572;2024-03-06T00:06:45;30.55;;;22.75;;
45887;SDS011;31595;51.418;7.572;2024-03-06T00:09:12;28.88;;;21.48;;
45887;SDS011;31595;51.418;7.572;2024-03-06T00:11:40;28.70;;;21.27;;
45887;SDS011;31595;51.418;7.572;2024-03-06T00:14:07;53.80;;;28.70;;
45887;SDS011;31595;51.418;7.572;2024-03-06T00:16:34;31.33;;;23.23;;
45887;SDS011;31595;51.418;7.572;2024-03-06T00:19:01;27.50;;;20.05;;
45887;SDS011;31595;51.418;7.572;2024-03-06T00:21:28;28.85;;;21.40;;
45887;SDS011;31595;51.418;7.572;2024-03-06T00:23:55;38.55;;;24.40;;
45887;SDS011;31595;51.418;7.572;2024-03-06T00:26:22;33.50;;;24.13;;
45887;SDS011;31595;51.418;7.572;2024-03-06T00:28:50;36.45;;;23.60;;
45887;SDS011;31595;51.418;7.572;2024-03-06T00:31:17;70.70;;;26.10;;
45887;SDS011;31595;51.418;7.572;2024-03-06T00:33:44;74.82;;;26.67;;
45887;SDS011;31595;51.418;7.572;2024-03-06T00:36:10;77.70;;;26.25;;
45887;SDS011;31595;51.418;7.572;2024-03-06T00:38:37;60.30;;;25.88;;
45887;SDS011;31595;51.418;7.572;2024-03-06T00:41:04;46.35;;;24.25;;
45887;SDS011;31595;51.418;7.572;2024-03-06T00:43:31;42.03;;;23.77;;
45887;SDS011;31595;51.418;7.572;2024-03-06T00:45:59;35.08;;;23.00;;
45887;SDS011;31595;51.418;7.572;2024-03-06T00:48:26;37.97;;;22.15;;
45887;SDS011;31595;51.418;7.572;2024-03-06T00:50:53;31.27;;;22.70;;
45887;SDS011;31595;51.418;7.572;2024-03-06T00:53:19;46.30;;;24.13;;
45887;SDS011;31595;51.418;7.572;2024-03-06T00:55:46;41.65;;;22.13;;
45887;SDS011;31595;51.418;7.572;2024-03-06T00:58:13;37.85;;;23.40;;
45887;SDS011;31595;51.418;7.572;2024-03-06T01:00:40;45.08;;;23.83;;
45887;SDS011;31595;51.418;7.572;2024-03-06T01:03:08;53.17;;;24.88;;
45887;SDS011;31595;51.418;7.572;2024-03-06T01:05:35;42.58;;;24.83;;
45887;SDS011;31595;51.418;7.572;2024-03-06T01:08:02;45.55;;;25.02;;
45887;SDS011;31595;51.418;7.572;2024-03-06T01:10:28;42.60;;;24.85;;
45887;SDS011;31595;51.418;7.572;2024-03-06T01:12:55;45.88;;;24.48;;
45887;SDS011;31595;51.418;7.572;2024-03-06T01:15:22;44.95;;;24.05;;
45887;SDS011;31595;51.418;7.572;2024-03-06T01:17:49;56.38;;;24.13;;
45887;SDS011;31595;51.418;7.572;2024-03-06T01:20:17;84.50;;;28.65;;
45887;SDS011;31595;51.418;7.572;2024-03-06T01:22:45;45.90;;;23.65;;
45887;SDS011;31595;51.418;7.572;2024-03-06T01:25:12;36.85;;;24.52;;
45887;SDS011;31595;51.418;7.572;2024-03-06T01:27:39;37.20;;;22.92;;
45887;SDS011;31595;51.418;7.572;2024-03-06T01:30:06;33.08;;;22.38;;
45887;SDS011;31595;51.418;7.572;2024-03-06T01:32:33;33.10;;;22.63;;
45887;SDS011;31595;51.418;7.572;2024-03-06T01:35:00;30.92;;;22.25;;
45887;SDS011;31595;51.418;7.572;2024-03-06T01:37:28;30.60;;;22.25;;
45887;SDS011;31595;51.418;7.572;2024-03-06T01:39:55;27.52;;;20.73;;
45887;SDS011;31595;51.418;7.572;2024-03-06T01:42:21;31.27;;;22.45;;
45887;SDS011;31595;51.418;7.572;2024-03-06T01:44:49;36.42;;;24.30;;
45887;SDS011;31595;51.418;7.572;2024-03-06T01:47:16;33.30;;;23.55;;
45887;SDS011;31595;51.418;7.572;2024-03-06T01:49:43;34.67;;;22.65;;
45887;SDS011;31595;51.418;7.572;2024-03-06T01:52:09;43.17;;;25.25;;
45887;SDS011;31595;51.418;7.572;2024-03-06T01:54:39;41.53;;;26.48;;
45887;SDS011;31595;51.418;7.572;2024-03-06T01:57:06;44.22;;;24.98;;
45887;SDS011;31595;51.418;7.572;2024-03-06T01:59:34;39.10;;;26.40;;
45887;SDS011;31595;51.418;7.572;2024-03-06T02:02:01;53.30;;;25.00;;
45887;SDS011;31595;51.418;7.572;2024-03-06T02:04:28;137.60;;;34.03;;
45887;SDS011;31595;51.418;7.572;2024-03-06T02:06:56;388.05;;;56.42;;
45887;SDS011;31595;51.418;7.572;2024-03-06T02:09:23;76.80;;;28.23;;
45887;SDS011;31595;51.418;7.572;2024-03-06T02:11:51;52.08;;;28.52;;
45887;SDS011;31595;51.418;7.572;2024-03-06T02:14:18;73.32;;;28.08;;
45887;SDS011;31595;51.418;7.572;2024-03-06T02:16:45;52.63;;;26.27;;
45887;SDS011;31595;51.418;7.572;2024-03-06T02:19:11;52.78;;;27.10;;
45887;SDS011;31595;51.418;7.572;2024-03-06T02:21:40;60.33;;;29.40;;
45887;SDS011;31595;51.418;7.572;2024-03-06T02:24:08;64.13;;;28.33;;
45887;SDS011;31595;51.418;7.572;2024-03-06T02:26:37;54.60;;;27.33;;
45887;SDS011;31595;51.418;7.572;2024-03-06T02:29:03;51.38;;;28.27;;
45887;SDS011;31595;51.418;7.572;2024-03-06T02:31:31;39.63;;;26.17;;
45887;SDS011;31595;51.418;7.572;2024-03-06T02:33:58;39.28;;;25.17;;
45887;SDS011;31595;51.418;7.572;2024-03-06T02:36:26;37.45;;;25.73;;
45887;SDS011;31595;51.418;7.572;2024-03-06T02:38:54;37.28;;;24.92;;
45887;SDS011;31595;51.418;7.572;2024-03-06T02:41:21;37.17;;;26.13;;
45887;SDS011;31595;51.418;7.572;2024-03-06T02:43:48;37.00;;;25.80;;
45887;SDS011;31595;51.418;7.572;2024-03-06T02:46:15;35.65;;;24.23;;
45887;SDS011;31595;51.418;7.572;2024-03-06T02:48:42;34.58;;;25.00;;
45887;SDS011;31595;51.418;7.572;2024-03-06T02:51:08;36.75;;;25.05;;
45887;SDS011;31595;51.418;7.572;2024-03-06T02:53:35;35.67;;;24.35;;
45887;SDS011;31595;51.418;7.572;2024-03-06T02:56:03;37.83;;;25.40;;
45887;SDS011;31595;51.418;7.572;2024-03-06T02:58:30;38.63;;;25.23;;
45887;SDS011;31595;51.418;7.572;2024-03-06T03:00:57;36.67;;;25.35;;
45887;SDS011;31595;51.418;7.572;2024-03-06T03:03:24;35.25;;;23.70;;
45887;SDS011;31595;51.418;7.572;2024-03-06T03:05:51;37.10;;;24.27;;
45887;SDS011;31595;51.418;7.572;2024-03-06T03:08:18;39.50;;;25.55;;
45887;SDS011;31595;51.418;7.572;2024-03-06T03:10:45;57.88;;;26.17;;
45887;SDS011;31595;51.418;7.572;2024-03-06T03:13:13;41.08;;;26.48;;
45887;SDS011;31595;51.418;7.572;2024-03-06T03:15:39;43.00;;;25.23;;
45887;SDS011;31595;51.418;7.572;2024-03-06T03:18:07;43.35;;;26.20;;
45887;SDS011;31595;51.418;7.572;2024-03-06T03:20:34;51.63;;;26.65;;
45887;SDS011;31595;51.418;7.572;2024-03-06T03:23:01;50.28;;;25.75;;
45887;SDS011;31595;51.418;7.572;2024-03-06T03:25:28;36.80;;;25.60;;
45887;SDS011;31595;51.418;7.572;2024-03-06T03:27:55;89.35;;;25.85;;
45887;SDS011;31595;51.418;7.572;2024-03-06T03:30:23;126.38;;;28.77;;
45887;SDS011;31595;51.418;7.572;2024-03-06T03:32:50;68.00;;;26.42;;
45887;SDS011;31595;51.418;7.572;2024-03-06T03:35:16;47.13;;;25.92;;
45887;SDS011;31595;51.418;7.572;2024-03-06T03:37:46;51.25;;;25.25;;
45887;SDS011;31595;51.418;7.572;2024-03-06T03:40:13;50.78;;;25.33;;
45887;SDS011;31595;51.418;7.572;2024-03-06T03:42:40;80.10;;;25.05;;
45887;SDS011;31595;51.418;7.572;2024-03-06T03:45:07;144.73;;;29.35;;
45887;SDS011;31595;51.418;7.572;2024-03-06T03:47:35;128.27;;;25.90;;
45887;SDS011;31595;51.418;7.572;2024-03-06T03:50:02;81.10;;;24.13;;
45887;SDS011;31595;51.418;7.572;2024-03-06T03:52:29;92.03;;;24.25;;
45887;SDS011;31595;51.418;7.572;2024-03-06T03:54:56;70.03;;;22.95;;
45887;SDS011;31595;51.418;7.572;2024-03-06T03:57:23;87.10;;;23.67;;
45887;SDS011;31595;51.418;7.572;2024-03-06T03:59:49;100.00;;;26.00;;
45887;SDS011;31595;51.418;7.572;2024-03-06T04:02:16;98.50;;;24.33;;
45887;SDS011;31595;51.418;7.572;2024-03-06T04:04:45;38.75;;;21.83;;
45887;SDS011;31595;51.418;7.572;2024-03-06T04:07:11;44.58;;;20.55;;
45887;SDS011;31595;51.418;7.572;2024-03-06T04:09:38;69.65;;;21.95;;
45887;SDS011;31595;51.418;7.572;2024-03-06T04:12:05;66.07;;;21.27;;
45887;SDS011;31595;51.418;7.572;2024-03-06T04:14:32;46.90;;;20.48;;
45887;SDS011;31595;51.418;7.572;2024-03-06T04:16:59;41.13;;;19.33;;
45887;SDS011;31595;51.418;7.572;2024-03-06T04:19:25;37.67;;;19.80;;
45887;SDS011;31595;51.418;7.572;2024-03-06T04:21:53;166.60;;;25.88;;
45887;SDS011;31595;51.418;7.572;2024-03-06T04:24:20;40.45;;;19.33;;
45887;SDS011;31595;51.418;7.572;2024-03-06T04:26:47;49.10;;;19.77;;
45887;SDS011;31595;51.418;7.572;2024-03-06T04:29:14;66.60;;;20.95;;
45887;SDS011;31595;51.418;7.572;2024-03-06T04:31:41;77.32;;;20.70;;
45887;SDS011;31595;51.418;7.572;2024-03-06T04:34:08;49.00;;;19.65;;
45887;SDS011;31595;51.418;7.572;2024-03-06T04:36:34;82.47;;;20.35;;
45887;SDS011;31595;51.418;7.572;2024-03-06T04:39:03;68.38;;;18.63;;
45887;SDS011;31595;51.418;7.572;2024-03-06T04:41:32;59.67;;;19.58;;
45887;SDS011;31595;51.418;7.572;2024-03-06T04:43:59;27.38;;;16.02;;
45887;SDS011;31595;51.418;7.572;2024-03-06T04:46:26;35.40;;;16.52;;
45887;SDS011;31595;51.418;7.572;2024-03-06T04:48:53;21.55;;;15.57;;
45887;SDS011;31595;51.418;7.572;2024-03-06T04:51:20;45.00;;;17.88;;
45887;SDS011;31595;51.418;7.572;2024-03-06T04:53:47;37.83;;;16.90;;
45887;SDS011;31595;51.418;7.572;2024-03-06T04:56:15;76.20;;;18.75;;
45887;SDS011;31595;51.418;7.572;2024-03-06T05:01:11;36.63;;;17.00;;
45887;SDS011;31595;51.418;7.572;2024-03-06T05:03:37;24.75;;;15.90;;
45887;SDS011;31595;51.418;7.572;2024-03-06T05:06:04;26.08;;;16.30;;
45887;SDS011;31595;51.418;7.572;2024-03-06T05:08:31;31.85;;;18.48;;
45887;SDS011;31595;51.418;7.572;2024-03-06T05:10:59;28.52;;;17.10;;
45887;SDS011;31595;51.418;7.572;2024-03-06T05:13:28;25.13;;;17.50;;
45887;SDS011;31595;51.418;7.572;2024-03-06T05:15:55;23.85;;;16.13;;
45887;SDS011;31595;51.418;7.572;2024-03-06T05:18:22;28.30;;;17.73;;
45887;SDS011;31595;51.418;7.572;2024-03-06T05:20:49;24.65;;;17.73;;
45887;SDS011;31595;51.418;7.572;2024-03-06T05:23:15;29.33;;;17.38;;
45887;SDS011;31595;51.418;7.572;2024-03-06T05:25:43;23.48;;;16.50;;
45887;SDS011;31595;51.418;7.572;2024-03-06T05:28:10;38.50;;;17.25;;
45887;SDS011;31595;51.418;7.572;2024-03-06T05:30:38;28.65;;;18.85;;
45887;SDS011;31595;51.418;7.572;2024-03-06T05:33:05;62.63;;;20.23;;
45887;SDS011;31595;51.418;7.572;2024-03-06T05:35:31;30.60;;;19.23;;
45887;SDS011;31595;51.418;7.572;2024-03-06T05:37:58;50.90;;;19.42;;
45887;SDS011;31595;51.418;7.572;2024-03-06T05:40:25;41.25;;;19.00;;
45887;SDS011;31595;51.418;7.572;2024-03-06T05:42:52;62.53;;;20.23;;
45887;SDS011;31595;51.418;7.572;2024-03-06T05:45:18;58.55;;;20.40;;
45887;SDS011;31595;51.418;7.572;2024-03-06T05:47:46;37.00;;;19.15;;
45887;SDS011;31595;51.418;7.572;2024-03-06T05:50:13;80.68;;;22.10;;
45887;SDS011;31595;51.418;7.572;2024-03-06T05:52:41;120.95;;;21.80;;
45887;SDS011;31595;51.418;7.572;2024-03-06T05:55:08;68.68;;;22.85;;
45887;SDS011;31595;51.418;7.572;2024-03-06T05:57:35;89.95;;;22.48;;
45887;SDS011;31595;51.418;7.572;2024-03-06T06:00:01;266.23;;;33.15;;
45887;SDS011;31595;51.418;7.572;2024-03-06T06:02:30;136.32;;;24.50;;
45887;SDS011;31595;51.418;7.572;2024-03-06T06:04:59;94.57;;;23.58;;
45887;SDS011;31595;51.418;7.572;2024-03-06T06:07:26;103.68;;;28.13;;
45887;SDS011;31595;51.418;7.572;2024-03-06T06:09:53;130.50;;;27.33;;
45887;SDS011;31595;51.418;7.572;2024-03-06T06:12:20;329.67;;;43.00;;
45887;SDS011;31595;51.418;7.572;2024-03-06T06:14:47;336.75;;;41.47;;
45887;SDS011;31595;51.418;7.572;2024-03-06T06:17:13;81.05;;;25.40;;
45887;SDS011;31595;51.418;7.572;2024-03-06T06:19:41;162.68;;;29.35;;
45887;SDS011;31595;51.418;7.572;2024-03-06T06:22:09;319.95;;;32.13;;
45887;SDS011;31595;51.418;7.572;2024-03-06T06:24:37;203.65;;;27.35;;
45887;SDS011;31595;51.418;7.572;2024-03-06T06:27:04;220.15;;;28.02;;
45887;SDS011;31595;51.418;7.572;2024-03-06T06:29:31;201.82;;;25.75;;
45887;SDS011;31595;51.418;7.572;2024-03-06T06:31:58;148.38;;;25.75;;
45887;SDS011;31595;51.418;7.572;2024-03-06T06:34:24;145.07;;;24.92;;
45887;SDS011;31595;51.418;7.572;2024-03-06T06:36:53;111.13;;;19.55;;
45887;SDS011;31595;51.418;7.572;2024-03-06T06:39:21;201.48;;;25.92;;
45887;SDS011;31595;51.418;7.572;2024-03-06T06:41:47;95.85;;;22.20;;
45887;SDS011;31595;51.418;7.572;2024-03-06T06:44:14;99.10;;;21.13;;
45887;SDS011;31595;51.418;7.572;2024-03-06T06:46:41;123.55;;;22.23;;
45887;SDS011;31595;51.418;7.572;2024-03-06T06:49:08;243.45;;;28.83;;
45887;SDS011;31595;51.418;7.572;2024-03-06T06:51:35;136.88;;;21.60;;
45887;SDS011;31595;51.418;7.572;2024-03-06T06:54:02;111.47;;;20.08;;
45887;SDS011;31595;51.418;7.572;2024-03-06T06:56:32;235.15;;;26.92;;
45887;SDS011;31595;51.418;7.572;2024-03-06T06:58:59;73.53;;;18.75;;
45887;SDS011;31595;51.418;7.572;2024-03-06T07:01:26;85.90;;;19.58;;
45887;SDS011;31595;51.418;7.572;2024-03-06T07:03:53;64.28;;;18.20;;
45887;SDS011;31595;51.418;7.572;2024-03-06T07:06:20;114.70;;;19.83;;
45887;SDS011;31595;51.418;7.572;2024-03-06T07:08:47;87.18;;;18.70;;
45887;SDS011;31595;51.418;7.572;2024-03-06T07:11:13;161.18;;;21.55;;
45887;SDS011;31595;51.418;7.572;2024-03-06T07:13:41;141.30;;;21.48;;
45887;SDS011;31595;51.418;7.572;2024-03-06T07:16:08;66.88;;;17.58;;
45887;SDS011;31595;51.418;7.572;2024-03-06T07:18:35;136.15;;;21.98;;
45887;SDS011;31595;51.418;7.572;2024-03-06T07:21:02;98.43;;;19.35;;
45887;SDS011;31595;51.418;7.572;2024-03-06T07:23:29;116.88;;;20.20;;
45887;SDS011;31595;51.418;7.572;2024-03-06T07:25:55;58.15;;;16.85;;
45887;SDS011;31595;51.418;7.572;2024-03-06T07:28:23;45.55;;;16.30;;
45887;SDS011;31595;51.418;7.572;2024-03-06T07:30:52;41.63;;;15.93;;
45887;SDS011;31595;51.418;7.572;2024-03-06T07:33:19;60.60;;;15.50;;
45887;SDS011;31595;51.418;7.572;2024-03-06T07:35:45;50.63;;;15.95;;
45887;SDS011;31595;51.418;7.572;2024-03-06T07:38:12;30.95;;;14.25;;
45887;SDS011;31595;51.418;7.572;2024-03-06T07:40:39;63.97;;;15.73;;
45887;SDS011;31595;51.418;7.572;2024-03-06T07:43:06;41.55;;;13.90;;
45887;SDS011;31595;51.418;7.572;2024-03-06T07:45:33;24.02;;;13.48;;
45887;SDS011;31595;51.418;7.572;2024-03-06T07:48:01;40.10;;;13.18;;
45887;SDS011;31595;51.418;7.572;2024-03-06T07:50:28;19.00;;;12.40;;
45887;SDS011;31595;51.418;7.572;2024-03-06T07:52:54;24.80;;;14.68;;
45887;SDS011;31595;51.418;7.572;2024-03-06T07:55:21;30.17;;;14.07;;
45887;SDS011;31595;51.418;7.572;2024-03-06T07:57:48;23.20;;;13.30;;
45887;SDS011;31595;51.418;7.572;2024-03-06T08:00:15;29.15;;;13.95;;
45887;SDS011;31595;51.418;7.572;2024-03-06T08:02:45;35.40;;;15.10;;
45887;SDS011;31595;51.418;7.572;2024-03-06T08:05:16;36.30;;;14.77;;
45887;SDS011;31595;51.418;7.572;2024-03-06T08:07:43;42.50;;;16.17;;
45887;SDS011;31595;51.418;7.572;2024-03-06T08:10:10;46.83;;;15.20;;
45887;SDS011;31595;51.418;7.572;2024-03-06T08:12:38;24.40;;;14.05;;
45887;SDS011;31595;51.418;7.572;2024-03-06T08:15:06;24.73;;;13.65;;
45887;SDS011;31595;51.418;7.572;2024-03-06T08:17:34;23.80;;;13.32;;
45887;SDS011;31595;51.418;7.572;2024-03-06T08:20:01;20.85;;;13.07;;
45887;SDS011;31595;51.418;7.572;2024-03-06T08:22:32;24.05;;;14.73;;
45887;SDS011;31595;51.418;7.572;2024-03-06T08:25:04;19.65;;;13.77;;
45887;SDS011;31595;51.418;7.572;2024-03-06T08:27:31;26.60;;;13.18;;
45887;SDS011;31595;51.418;7.572;2024-03-06T08:29:58;36.88;;;14.32;;
45887;SDS011;31595;51.418;7.572;2024-03-06T08:32:24;32.00;;;13.80;;
45887;SDS011;31595;51.418;7.572;2024-03-06T08:34:53;19.50;;;13.13;;
45887;SDS011;31595;51.418;7.572;2024-03-06T08:37:19;38.75;;;15.18;;
45887;SDS011;31595;51.418;7.572;2024-03-06T08:39:47;20.02;;;13.70;;
45887;SDS011;31595;51.418;7.572;2024-03-06T08:42:14;133.55;;;21.13;;
45887;SDS011;31595;51.418;7.572;2024-03-06T08:44:43;36.10;;;14.00;;
45887;SDS011;31595;51.418;7.572;2024-03-06T08:47:11;47.67;;;15.18;;
45887;SDS011;31595;51.418;7.572;2024-03-06T08:49:38;27.67;;;14.52;;
45887;SDS011;31595;51.418;7.572;2024-03-06T08:52:05;24.77;;;14.55;;
45887;SDS011;31595;51.418;7.572;2024-03-06T08:54:32;19.77;;;13.75;;
45887;SDS011;31595;51.418;7.572;2024-03-06T08:57:00;20.48;;;14.25;;
45887;SDS011;31595;51.418;7.572;2024-03-06T08:59:28;36.53;;;15.40;;
45887;SDS011;31595;51.418;7.572;2024-03-06T09:01:55;23.58;;;15.10;;
45887;SDS011;31595;51.418;7.572;2024-03-06T09:04:23;26.70;;;16.00;;
45887;SDS011;31595;51.418;7.572;2024-03-06T09:06:49;41.63;;;16.60;;
45887;SDS011;31595;51.418;7.572;2024-03-06T09:09:16;34.72;;;17.60;;
45887;SDS011;31595;51.418;7.572;2024-03-06T09:11:43;27.48;;;16.83;;
45887;SDS011;31595;51.418;7.572;2024-03-06T09:14:12;29.83;;;16.48;;
45887;SDS011;31595;51.418;7.572;2024-03-06T09:16:38;24.90;;;15.75;;
45887;SDS011;31595;51.418;7.572;2024-03-06T09:19:05;25.90;;;15.90;;
45887;SDS011;31595;51.418;7.572;2024-03-06T09:21:32;22.90;;;15.18;;
45887;SDS011;31595;51.418;7.572;2024-03-06T09:23:59;42.22;;;17.23;;
45887;SDS011;31595;51.418;7.572;2024-03-06T09:26:26;37.70;;;16.33;;
45887;SDS011;31595;51.418;7.572;2024-03-06T09:28:52;21.83;;;15.52;;
45887;SDS011;31595;51.418;7.572;2024-03-06T09:31:20;45.08;;;17.13;;
45887;SDS011;31595;51.418;7.572;2024-03-06T09:33:47;32.80;;;17.02;;
45887;SDS011;31595;51.418;7.572;2024-03-06T09:36:14;53.92;;;16.52;;
45887;SDS011;31595;51.418;7.572;2024-03-06T09:38:42;22.60;;;14.02;;
45887;SDS011;31595;51.418;7.572;2024-03-06T09:41:08;20.83;;;14.27;;
45887;SDS011;31595;51.418;7.572;2024-03-06T09:43:35;151.32;;;23.50;;
45887;SDS011;31595;51.418;7.572;2024-03-06T09:46:02;118.88;;;21.77;;
45887;SDS011;31595;51.418;7.572;2024-03-06T09:48:30;28.17;;;15.95;;
45887;SDS011;31595;51.418;7.572;2024-03-06T09:51:00;47.78;;;17.02;;
45887;SDS011;31595;51.418;7.572;2024-03-06T09:53:27;38.40;;;17.00;;
45887;SDS011;31595;51.418;7.572;2024-03-06T09:55:54;17.77;;;14.35;;
45887;SDS011;31595;51.418;7.572;2024-03-06T09:58:21;20.88;;;15.15;;
45887;SDS011;31595;51.418;7.572;2024-03-06T10:00:48;20.17;;;16.35;;
45887;SDS011;31595;51.418;7.572;2024-03-06T10:03:16;23.10;;;16.30;;
45887;SDS011;31595;51.418;7.572;2024-03-06T10:05:45;18.58;;;15.30;;
45887;SDS011;31595;51.418;7.572;2024-03-06T10:08:11;16.65;;;14.77;;
45887;SDS011;31595;51.418;7.572;2024-03-06T10:10:41;16.63;;;14.00;;
45887;SDS011;31595;51.418;7.572;2024-03-06T10:13:08;16.60;;;14.20;;
45887;SDS011;31595;51.418;7.572;2024-03-06T10:15:35;19.23;;;16.35;;
45887;SDS011;31595;51.418;7.572;2024-03-06T10:18:12;17.13;;;14.10;;
45887;SDS011;31595;51.418;7.572;2024-03-06T10:20:39;16.40;;;14.20;;
45887;SDS011;31595;51.418;7.572;2024-03-06T10:23:09;14.65;;;13.15;;
45887;SDS011;31595;51.418;7.572;2024-03-06T10:25:36;15.68;;;13.63;;
45887;SDS011;31595;51.418;7.572;2024-03-06T10:28:04;15.75;;;14.15;;
45887;SDS011;31595;51.418;7.572;2024-03-06T10:30:31;14.82;;;13.32;;
45887;SDS011;31595;51.418;7.572;2024-03-06T10:32:58;15.25;;;13.73;;
45887;SDS011;31595;51.418;7.572;2024-03-06T10:35:25;15.27;;;13.80;;
45887;SDS011;31595;51.418;7.572;2024-03-06T10:37:52;15.30;;;13.70;;
45887;SDS011;31595;51.418;7.572;2024-03-06T10:42:48;16.58;;;14.88;;
45887;SDS011;31595;51.418;7.572;2024-03-06T10:45:16;16.85;;;15.15;;
45887;SDS011;31595;51.418;7.572;2024-03-06T10:47:45;16.88;;;15.00;;
45887;SDS011;31595;51.418;7.572;2024-03-06T10:50:13;17.13;;;15.43;;
45887;SDS011;31595;51.418;7.572;2024-03-06T10:52:40;15.23;;;13.73;;
45887;SDS011;31595;51.418;7.572;2024-03-06T10:55:08;16.08;;;14.48;;
45887;SDS011;31595;51.418;7.572;2024-03-06T10:57:35;17.23;;;15.57;;
45887;SDS011;31595;51.418;7.572;2024-03-06T11:00:04;11.32;;;10.13;;
45887;SDS011;31595;51.418;7.572;2024-03-06T11:02:32;13.20;;;12.02;;
45887;SDS011;31595;51.418;7.572;2024-03-06T11:05:01;13.02;;;11.77;;
45887;SDS011;31595;51.418;7.572;2024-03-06T11:07:30;12.68;;;11.57;;
45887;SDS011;31595;51.418;7.572;2024-03-06T11:09:58;13.05;;;11.80;;
45887;SDS011;31595;51.418;7.572;2024-03-06T11:12:34;13.98;;;12.63;;
45887;SDS011;31595;51.418;7.572;2024-03-06T11:15:09;12.23;;;11.05;;
45887;SDS011;31595;51.418;7.572;2024-03-06T11:17:37;12.02;;;10.82;;
45887;SDS011;31595;51.418;7.572;2024-03-06T11:20:15;11.40;;;10.30;;
45887;SDS011;31595;51.418;7.572;2024-03-06T11:28:19;13.32;;;12.00;;
45887;SDS011;31595;51.418;7.572;2024-03-06T11:30:47;13.38;;;12.18;;
45887;SDS011;31595;51.418;7.572;2024-03-06T11:33:15;13.00;;;11.70;;
45887;SDS011;31595;51.418;7.572;2024-03-06T11:35:42;13.63;;;12.32;;
45887;SDS011;31595;51.418;7.572;2024-03-06T11:38:16;13.13;;;11.82;;
45887;SDS011;31595;51.418;7.572;2024-03-06T11:40:43;13.32;;;12.02;;
45887;SDS011;31595;51.418;7.572;2024-03-06T11:43:22;14.05;;;12.75;;
45887;SDS011;31595;51.418;7.572;2024-03-06T11:45:50;14.30;;;13.10;;
45887;SDS011;31595;51.418;7.572;2024-03-06T11:48:17;15.57;;;14.18;;
45887;SDS011;31595;51.418;7.572;2024-03-06T11:50:47;16.13;;;14.63;;
45887;SDS011;31595;51.418;7.572;2024-03-06T11:53:14;17.30;;;15.70;;
45887;SDS011;31595;51.418;7.572;2024-03-06T11:55:41;17.27;;;15.77;;
45887;SDS011;31595;51.418;7.572;2024-03-06T11:58:08;16.42;;;15.02;;
45887;SDS011;31595;51.418;7.572;2024-03-06T12:00:37;16.80;;;15.35;;
45887;SDS011;31595;51.418;7.572;2024-03-06T12:03:05;17.17;;;15.70;;
45887;SDS011;31595;51.418;7.572;2024-03-06T12:05:32;16.45;;;14.98;;
45887;SDS011;31595;51.418;7.572;2024-03-06T12:07:59;17.05;;;15.55;;
45887;SDS011;31595;51.418;7.572;2024-03-06T12:10:26;16.15;;;14.77;;
45887;SDS011;31595;51.418;7.572;2024-03-06T12:12:53;15.85;;;14.45;;
45887;SDS011;31595;51.418;7.572;2024-03-06T12:15:20;14.50;;;13.20;;
45887;SDS011;31595;51.418;7.572;2024-03-06T12:17:46;13.73;;;12.52;;
45887;SDS011;31595;51.418;7.572;2024-03-06T12:20:15;13.88;;;12.57;;
45887;SDS011;31595;51.418;7.572;2024-03-06T12:22:43;12.65;;;11.55;;
45887;SDS011;31595;51.418;7.572;2024-03-06T12:25:10;13.73;;;12.43;;
45887;SDS011;31595;51.418;7.572;2024-03-06T12:27:37;13.18;;;12.07;;
45887;SDS011;31595;51.418;7.572;2024-03-06T12:30:08;13.05;;;11.88;;
45887;SDS011;31595;51.418;7.572;2024-03-06T12:32:34;14.52;;;13.32;;
45887;SDS011;31595;51.418;7.572;2024-03-06T12:35:01;16.08;;;14.57;;
45887;SDS011;31595;51.418;7.572;2024-03-06T12:37:30;16.00;;;14.50;;
45887;SDS011;31595;51.418;7.572;2024-03-06T12:39:57;15.75;;;14.35;;
45887;SDS011;31595;51.418;7.572;2024-03-06T12:42:24;12.85;;;11.75;;
45887;SDS011;31595;51.418;7.572;2024-03-06T12:44:51;14.15;;;12.82;;
45887;SDS011;31595;51.418;7.572;2024-03-06T12:47:18;16.83;;;15.27;;
45887;SDS011;31595;51.418;7.572;2024-03-06T12:49:45;16.30;;;14.90;;
45887;SDS011;31595;51.418;7.572;2024-03-06T12:52:12;18.45;;;16.75;;
45887;SDS011;31595;51.418;7.572;2024-03-06T12:54:40;18.83;;;17.05;;
45887;SDS011;31595;51.418;7.572;2024-03-06T12:57:06;19.42;;;17.63;;
45887;SDS011;31595;51.418;7.572;2024-03-06T12:59:34;19.55;;;17.63;;
45887;SDS011;31595;51.418;7.572;2024-03-06T13:02:00;20.92;;;18.90;;
45887;SDS011;31595;51.418;7.572;2024-03-06T13:04:27;19.30;;;17.60;;
45887;SDS011;31595;51.418;7.572;2024-03-06T13:06:54;19.92;;;18.23;;
45887;SDS011;31595;51.418;7.572;2024-03-06T13:09:20;19.95;;;18.20;;
45887;SDS011;31595;51.418;7.572;2024-03-06T13:11:50;19.80;;;17.90;;
45887;SDS011;31595;51.418;7.572;2024-03-06T13:14:16;19.70;;;17.70;;
45887;SDS011;31595;51.418;7.572;2024-03-06T13:16:43;17.98;;;16.15;;
45887;SDS011;31595;51.418;7.572;2024-03-06T13:19:11;15.63;;;14.05;;
45887;SDS011;31595;51.418;7.572;2024-03-06T13:21:39;16.73;;;15.32;;
45887;SDS011;31595;51.418;7.572;2024-03-06T13:24:06;17.00;;;15.40;;
45887;SDS011;31595;51.418;7.572;2024-03-06T13:26:33;17.33;;;15.82;;
45887;SDS011;31595;51.418;7.572;2024-03-06T13:29:02;17.85;;;16.25;;
45887;SDS011;31595;51.418;7.572;2024-03-06T13:31:28;16.90;;;15.30;;
45887;SDS011;31595;51.418;7.572;2024-03-06T13:33:59;15.43;;;13.82;;
45887;SDS011;31595;51.418;7.572;2024-03-06T13:36:26;18.67;;;16.77;;
45887;SDS011;31595;51.418;7.572;2024-03-06T13:38:53;22.10;;;20.08;;
45887;SDS011;31595;51.418;7.572;2024-03-06T13:41:20;24.20;;;22.00;;
45887;SDS011;31595;51.418;7.572;2024-03-06T13:43:46;25.08;;;22.63;;
45887;SDS011;31595;51.418;7.572;2024-03-06T13:46:15;24.90;;;22.50;;
45887;SDS011;31595;51.418;7.572;2024-03-06T13:48:41;24.48;;;22.27;;
45887;SDS011;31595;51.418;7.572;2024-03-06T13:51:08;26.98;;;24.48;;
45887;SDS011;31595;51.418;7.572;2024-03-06T13:53:35;26.58;;;23.98;;
45887;SDS011;31595;51.418;7.572;2024-03-06T13:56:02;26.58;;;24.17;;
45887;SDS011;31595;51.418;7.572;2024-03-06T13:58:29;27.88;;;25.30;;
45887;SDS011;31595;51.418;7.572;2024-03-06T14:00:55;29.33;;;26.33;;
45887;SDS011;31595;51.418;7.572;2024-03-06T14:03:24;27.45;;;24.63;;
45887;SDS011;31595;51.418;7.572;2024-03-06T14:05:51;26.83;;;24.02;;
45887;SDS011;31595;51.418;7.572;2024-03-06T14:08:18;27.80;;;24.88;;
45887;SDS011;31595;51.418;7.572;2024-03-06T14:10:44;26.30;;;23.52;;
45887;SDS011;31595;51.418;7.572;2024-03-06T14:13:11;27.00;;;24.20;;
45887;SDS011;31595;51.418;7.572;2024-03-06T14:15:38;25.48;;;22.98;;
45887;SDS011;31595;51.418;7.572;2024-03-06T14:18:05;25.33;;;22.80;;
45887;SDS011;31595;51.418;7.572;2024-03-06T14:20:33;26.73;;;23.92;;
45887;SDS011;31595;51.418;7.572;2024-03-06T14:23:00;27.17;;;24.33;;
45887;SDS011;31595;51.418;7.572;2024-03-06T14:25:27;26.27;;;23.58;;
45887;SDS011;31595;51.418;7.572;2024-03-06T14:27:55;26.33;;;23.50;;
45887;SDS011;31595;51.418;7.572;2024-03-06T14:30:22;26.55;;;23.73;;
45887;SDS011;31595;51.418;7.572;2024-03-06T14:32:48;26.88;;;24.08;;